Time;durP1;ratioP1;P1;durP2;ratioP2;P2;SDS_P1;SDS_P2;PMS_P1;PMS_P2;Temp;Humidity;BMP_temperature;BMP_pressure;BME280_temperature;BME280_humidity;BME280_pressure;Samples;Min_cycle;Max_cycle;Signal;HPM_P1;HPM_P2
2022/11/12 11:10:21;;;;;;;14.05;7.20;;;;;;;11.85;67.96;99684.16;6178565;23;20485;-65
2022/11/12 11:12:46;;;;;;;12.13;6.60;;;;;;;11.98;67.88;99682.63;6133550;23;20103;-65
2022/11/12 11:15:14;;;;;;;12.68;6.88;;;;;;;12.09;67.84;99685.53;6133200;23;20080;-63
2022/11/12 11:17:40;;;;;;;11.38;6.85;;;;;;;12.22;68.05;99684.91;6184957;23;20015;-63
2022/11/12 11:20:14;;;;;;;14.13;8.00;;;;;;;12.22;66.76;99677.88;6184400;23;20072;-64
2022/11/12 11:22:49;;;;;;;11.05;5.95;;;;;;;12.34;66.79;99668.47;6159636;23;20005;-64
2022/11/12 11:25:21;;;;;;;12.05;6.70;;;;;;;12.47;66.83;99660.78;6134789;23;20003;-63
2022/11/12 11:28:29;;;;;;;12.18;6.63;;;;;;;12.65;66.32;99661.59;6135737;23;20435;-63
2022/11/12 11:31:24;;;;;;;11.82;6.57;;;;;;;12.81;65.83;99665.09;6041410;23;20031;-63
2022/11/12 11:33:57;;;;;;;11.73;6.47;;;;;;;12.95;65.39;99665.19;6055827;23;20129;-63
2022/11/12 11:36:27;;;;;;;13.25;6.80;;;;;;;13.07;64.63;99664.50;6041213;23;20014;-63
2022/11/12 11:39:02;;;;;;;12.82;6.95;;;;;;;13.17;64.07;99659.56;6018430;23;20003;-63
2022/11/12 11:41:33;;;;;;;11.43;6.45;;;;;;;13.29;63.70;99653.63;6018096;23;20011;-63
2022/11/12 11:44:36;;;;;;;12.65;6.63;;;;;;;13.44;63.12;99651.91;6065050;23;20006;-64
2022/11/12 11:47:32;;;;;;;13.23;7.60;;;;;;;13.53;62.18;99647.91;5979757;24;20091;-63
2022/11/12 11:50:42;;;;;;;12.98;7.30;;;;;;;13.54;61.67;99642.53;5977862;24;20091;-63
2022/11/12 11:53:30;;;;;;;12.38;7.57;;;;;;;13.62;61.97;99650.00;5951181;24;20470;-64
2022/11/12 11:55:58;;;;;;;12.82;7.20;;;;;;;13.69;61.71;99634.66;5929229;24;20009;-64
2022/11/12 11:58:30;;;;;;;14.65;8.50;;;;;;;13.61;60.83;99642.19;5958603;24;20563;-64
2022/11/12 12:01:29;;;;;;;13.02;7.15;;;;;;;13.76;61.76;99641.28;5950460;24;20008;-63
2022/11/12 12:04:11;;;;;;;10.98;6.38;;;;;;;13.91;61.68;99636.91;5951450;24;20031;-63
2022/11/12 12:06:49;;;;;;;13.07;8.10;;;;;;;14.10;61.11;99626.06;5968891;24;20010;-62
2022/11/12 12:09:18;;;;;;;13.13;7.45;;;;;;;14.21;60.95;99628.91;5956758;24;20026;-63
2022/11/12 12:12:02;;;;;;;12.88;7.00;;;;;;;14.32;60.86;99623.00;5956784;24;20126;-63
2022/11/12 12:14:37;;;;;;;13.52;6.88;;;;;;;14.42;60.63;99614.41;5979566;24;20008;-63
2022/11/12 12:17:18;;;;;;;12.80;7.00;;;;;;;14.57;60.30;99617.06;5957284;24;20008;-63
2022/11/12 12:20:04;;;;;;;11.63;7.72;;;;;;;14.68;59.50;99615.44;5958055;24;20090;-63
2022/11/12 12:22:51;;;;;;;12.02;7.22;;;;;;;14.82;58.84;99617.19;5913133;23;20043;-63
2022/11/12 12:25:21;;;;;;;12.38;7.03;;;;;;;14.98;58.83;99600.38;6122527;23;20089;-63
2022/11/12 12:27:59;;;;;;;14.52;7.43;;;;;;;15.07;57.89;99599.78;6120108;23;20009;-63
2022/11/12 12:30:24;;;;;;;12.90;7.95;;;;;;;15.10;57.80;99604.88;6160948;23;20005;-63
2022/11/12 12:33:00;;;;;;;13.10;7.43;;;;;;;15.10;57.56;99599.56;6109279;23;20084;-65
2022/11/12 12:35:30;;;;;;;14.02;7.97;;;;;;;15.10;57.58;99595.13;6135909;23;20075;-63
2022/11/12 12:38:14;;;;;;;12.82;7.47;;;;;;;15.14;57.80;99591.38;6184891;23;20004;-65
2022/11/12 12:40:45;;;;;;;12.75;7.15;;;;;;;15.16;57.80;99588.63;6185115;23;20018;-65
2022/11/12 12:43:17;;;;;;;12.00;7.25;;;;;;;15.21;57.27;99589.19;6158809;23;20005;-66
2022/11/12 12:45:43;;;;;;;11.13;7.68;;;;;;;15.24;57.51;99575.72;6184885;23;20004;-65
2022/11/12 12:48:18;;;;;;;11.55;7.68;;;;;;;15.20;56.92;99580.38;6133734;23;20084;-65
2022/11/12 12:50:43;;;;;;;12.52;7.28;;;;;;;15.16;57.03;99572.75;6110073;23;20009;-65
2022/11/12 12:53:28;;;;;;;12.55;7.53;;;;;;;15.19;57.51;99570.75;6158129;23;20427;-65
2022/11/12 12:55:56;;;;;;;12.18;7.28;;;;;;;15.25;57.37;99566.03;6161214;23;20033;-65
2022/11/12 12:58:27;;;;;;;12.00;6.22;;;;;;;15.37;65.73;99571.31;6134792;23;20028;-64
2022/11/12 13:01:19;;;;;;;11.63;5.78;;;;;;;16.80;60.51;99564.97;6184790;23;20012;-62
2022/11/12 13:03:56;;;;;;;13.23;7.03;;;;;;;16.67;54.82;99564.13;6168307;23;20001;-66
2022/11/12 13:06:21;;;;;;;11.80;6.65;;;;;;;16.38;55.28;99567.06;6158441;23;20004;-65
2022/11/12 13:08:53;;;;;;;11.25;6.70;;;;;;;16.18;56.01;99567.63;6184676;23;20009;-65
2022/11/12 13:14:30;;;;;;;10.82;6.22;;;;;;;15.96;57.28;99570.06;6184253;23;20051;-65
2022/11/12 13:16:59;;;;;;;;;;;;;;;15.89;57.18;99562.53;6184763;23;20462;-64
2022/11/12 13:19:28;;;;;;;10.45;5.60;;;;;;;15.86;56.97;99556.59;6158073;23;20317;-64
2022/11/12 13:22:16;;;;;;;11.20;6.00;;;;;;;15.83;56.90;99560.34;6133838;23;20001;-62
2022/11/12 13:25:23;;;;;;;10.63;5.72;;;;;;;15.86;56.77;99561.91;6183462;23;20439;-63
2022/11/12 13:27:48;;;;;;;11.82;6.53;;;;;;;15.84;56.76;99556.72;6168052;23;20005;-65
2022/11/12 13:30:16;;;;;;;10.63;5.73;;;;;;;15.80;57.23;99560.53;6158136;23;20059;-62
2022/11/12 13:32:50;;;;;;;12.73;6.97;;;;;;;15.73;56.63;99558.44;6184505;23;20669;-64
2022/11/12 13:35:15;;;;;;;11.32;6.93;;;;;;;15.67;56.86;99559.69;6184208;23;20101;-63
2022/11/12 13:38:02;;;;;;;11.60;6.20;;;;;;;15.64;57.45;99551.91;6184415;23;20006;-64
2022/11/12 13:40:30;;;;;;;11.07;7.22;;;;;;;15.59;57.25;99559.34;6161984;23;20001;-63
2022/11/12 13:43:13;;;;;;;10.95;6.10;;;;;;;15.58;58.18;99562.91;6183673;23;20039;-63
2022/11/12 13:45:57;;;;;;;11.52;6.40;;;;;;;15.52;58.30;99558.03;6184230;23;20003;-63
2022/11/12 13:48:25;;;;;;;10.20;5.50;;;;;;;15.49;58.58;99564.38;6134125;23;20004;-63
2022/11/12 13:50:52;;;;;;;9.98;6.20;;;;;;;15.41;58.85;99561.41;6133915;23;19997;-63
2022/11/12 13:53:23;;;;;;;11.63;6.40;;;;;;;15.35;58.83;99560.03;6133463;23;20012;-63
2022/11/12 13:55:49;;;;;;;9.35;5.40;;;;;;;15.33;59.04;99563.72;6133132;23;20005;-63
2022/11/12 13:58:18;;;;;;;12.23;6.35;;;;;;;15.27;59.49;99566.75;6184125;23;20327;-63
2022/11/12 14:00:53;;;;;;;13.40;6.25;;;;;;;15.17;60.18;99563.88;6134036;23;20076;-64
2022/11/12 14:03:19;;;;;;;11.80;6.30;;;;;;;15.09;60.38;99560.91;6133837;23;20075;-64
2022/11/12 14:05:46;;;;;;;11.55;6.05;;;;;;;15.01;60.62;99565.84;6184025;23;20419;-64
2022/11/12 14:08:31;;;;;;;10.07;5.40;;;;;;;14.91;60.91;99560.31;6158036;23;20098;-64
2022/11/12 14:11:08;;;;;;;13.18;7.80;;;;;;;14.73;60.12;99557.06;6156996;23;20040;-65
2022/11/12 14:14:15;;;;;;;11.63;7.50;;;;;;;14.56;60.81;99557.31;6158050;23;20083;-64
2022/11/12 14:16:52;;;;;;;13.40;8.13;;;;;;;14.41;60.89;99562.53;6161290;23;20009;-65
2022/11/12 14:19:25;;;;;;;13.43;7.22;;;;;;;14.33;61.06;99556.06;6183409;23;20001;-65
2022/11/12 14:22:12;;;;;;;14.25;7.00;;;;;;;14.20;61.97;99561.25;6158088;23;20005;-65
2022/11/12 14:24:38;;;;;;;14.90;8.38;;;;;;;14.08;61.86;99552.31;6183511;23;20075;-65
2022/11/12 14:27:03;;;;;;;13.30;7.47;;;;;;;14.00;62.20;99558.06;6157288;23;20009;-65
2022/11/12 14:29:28;;;;;;;14.60;8.93;;;;;;;13.91;62.52;99550.72;6157554;23;20076;-67
2022/11/12 14:32:01;;;;;;;11.68;7.28;;;;;;;13.81;63.01;99549.56;6132826;23;20533;-63
2022/11/12 14:34:27;;;;;;;12.60;7.90;;;;;;;13.72;63.84;99544.84;6183627;23;20076;-65
2022/11/12 14:36:54;;;;;;;13.38;7.47;;;;;;;13.61;64.43;99547.28;6157860;23;20005;-66
2022/11/12 14:39:21;;;;;;;13.82;7.35;;;;;;;13.49;64.63;99548.88;6183853;23;20028;-66
2022/11/12 14:41:48;;;;;;;15.05;8.20;;;;;;;13.37;64.72;99547.78;6156874;23;20001;-66
2022/11/12 14:44:33;;;;;;;13.15;8.07;;;;;;;13.25;65.11;99548.53;6108603;23;20029;-65
2022/11/12 14:46:59;;;;;;;12.93;7.40;;;;;;;13.13;66.01;99542.13;6135276;23;20005;-65
2022/11/12 14:49:41;;;;;;;14.38;7.90;;;;;;;13.00;66.32;99538.50;6134229;23;20005;-66
2022/11/12 14:52:15;;;;;;;13.15;7.70;;;;;;;12.85;66.00;99527.06;6159872;23;20012;-65
2022/11/12 14:54:45;;;;;;;14.82;8.07;;;;;;;12.74;66.82;99532.94;6134806;23;20112;-65
2022/11/12 14:57:22;;;;;;;14.20;7.93;;;;;;;12.66;68.12;99536.94;6136296;23;20007;-65
2022/11/12 14:59:47;;;;;;;14.73;7.60;;;;;;;12.55;68.56;99541.00;6134980;23;20001;-65
2022/11/12 15:02:15;;;;;;;14.82;8.13;;;;;;;12.44;68.76;99538.13;6159610;23;20005;-62
2022/11/12 15:04:49;;;;;;;15.40;8.00;;;;;;;12.33;69.56;99535.25;6133971;23;20005;-65
2022/11/12 18:52:22;;;;;;;70.50;38.33;;;;;;;6.50;84.36;99427.84;6154598;23;20079;-62
2022/11/12 18:54:47;;;;;;;158.82;81.13;;;;;;;6.40;83.87;99422.94;6130380;23;20009;-64
2022/11/12 18:57:12;;;;;;;94.45;51.83;;;;;;;6.34;84.52;99427.50;6182651;23;20107;-63
2022/11/12 18:59:38;;;;;;;121.07;60.40;;;;;;;6.18;83.05;99427.13;6183007;23;20084;-63
2022/11/12 19:02:03;;;;;;;81.60;43.53;;;;;;;6.09;83.67;99438.69;6182997;23;20135;-64
2022/11/12 19:04:29;;;;;;;49.88;28.92;;;;;;;6.05;83.92;99425.78;6183344;23;20076;-64
2022/11/12 19:06:54;;;;;;;33.85;19.13;;;;;;;6.02;84.15;99433.69;6155581;23;20064;-65
2022/11/12 19:09:20;;;;;;;31.00;18.35;;;;;;;5.98;84.54;99429.47;6181491;23;20013;-65
2022/11/12 19:11:45;;;;;;;38.45;21.77;;;;;;;5.91;85.12;99434.84;6183118;23;20422;-65
2022/11/12 19:14:10;;;;;;;64.93;34.17;;;;;;;5.85;85.31;99428.97;6183297;23;20011;-64
2022/11/12 19:16:39;;;;;;;48.05;27.83;;;;;;;5.86;85.78;99430.69;6183511;23;20068;-65
2022/11/12 19:19:04;;;;;;;77.18;38.13;;;;;;;5.81;85.16;99428.19;6108157;23;20013;-63
2022/11/12 19:21:29;;;;;;;46.22;25.33;;;;;;;5.85;85.72;99434.16;6155614;23;20009;-64
2022/11/12 19:23:56;;;;;;;119.90;45.25;;;;;;;5.83;85.35;99430.78;6183263;23;20069;-63
2022/11/12 19:26:21;;;;;;;42.83;30.85;;;;;;;5.79;85.02;99430.00;6182631;23;20072;-63
2022/11/12 19:28:47;;;;;;;39.88;25.33;;;;;;;5.74;86.07;99426.69;6157089;23;20015;-62
2022/11/12 19:31:13;;;;;;;41.13;28.45;;;;;;;5.71;85.81;99431.97;6182459;23;20434;-63
2022/11/12 19:33:38;;;;;;;33.92;23.48;;;;;;;5.69;86.37;99424.22;6156527;23;20005;-63
2022/11/12 19:36:04;;;;;;;32.97;23.23;;;;;;;5.66;86.72;99429.50;6184165;23;20001;-62
2022/11/12 19:38:30;;;;;;;40.40;26.33;;;;;;;5.69;86.66;99420.78;6159149;23;20001;-63
2022/11/12 19:41:04;;;;;;;38.83;24.63;;;;;;;5.70;86.41;99422.47;6159231;23;19997;-61
2022/11/12 19:43:29;;;;;;;38.92;25.05;;;;;;;5.68;86.30;99417.31;6159160;23;19997;-62
2022/11/12 19:45:55;;;;;;;41.00;26.23;;;;;;;5.68;86.44;99421.69;6184760;23;20001;-63
2022/11/12 19:48:20;;;;;;;42.17;27.40;;;;;;;5.67;86.80;99418.19;6182038;23;20435;-63
2022/11/12 19:50:45;;;;;;;40.17;22.88;;;;;;;5.68;86.87;99412.09;6181568;23;20041;-63
2022/11/12 19:53:11;;;;;;;38.92;24.45;;;;;;;5.64;86.65;99407.91;6183942;23;20088;-65
2022/11/12 19:55:36;;;;;;;30.92;17.17;;;;;;;5.69;88.18;99410.34;6183269;23;20077;-65
2022/11/12 19:58:01;;;;;;;30.05;17.20;;;;;;;5.72;89.05;99407.66;6184474;23;20013;-64
2022/11/12 20:00:27;;;;;;;41.58;26.58;;;;;;;5.68;87.49;99406.06;6185066;23;20589;-64
2022/11/12 20:02:52;;;;;;;44.42;27.27;;;;;;;5.99;92.36;99410.34;6183105;23;20027;-64
2022/11/12 20:05:18;;;;;;;33.53;20.45;;;;;;;5.91;90.31;99408.78;6132681;23;20171;-65
2022/11/12 20:07:43;;;;;;;29.33;17.65;;;;;;;5.84;87.59;99407.28;6184689;23;20005;-66
2022/11/12 20:10:08;;;;;;;28.23;16.63;;;;;;;5.78;86.20;99402.28;6133839;23;20148;-64
2022/11/12 20:12:35;;;;;;;24.48;16.48;;;;;;;5.72;85.07;99405.06;6184727;23;20542;-65
2022/11/12 20:15:00;;;;;;;26.35;15.70;;;;;;;5.65;85.12;99399.19;6184687;23;20044;-63
2022/11/12 20:17:26;;;;;;;40.85;21.63;;;;;;;5.62;85.82;99395.81;6184726;23;20072;-65
2022/11/12 20:19:51;;;;;;;38.33;22.50;;;;;;;7.10;92.92;99400.59;6157742;23;20494;-65
2022/11/12 20:22:17;;;;;;;67.28;33.45;;;;;;;6.59;89.99;99394.50;6184045;23;20093;-63
2022/11/12 20:24:42;;;;;;;61.78;28.02;;;;;;;6.19;86.86;99397.56;6183103;23;20131;-64
2022/11/12 20:27:07;;;;;;;41.17;23.08;;;;;;;5.89;83.23;99388.94;6183861;23;20080;-64
2022/11/12 20:29:33;;;;;;;188.75;63.05;;;;;;;5.73;84.54;99393.75;6158760;23;20501;-64
2022/11/12 20:31:58;;;;;;;168.15;65.25;;;;;;;5.61;83.80;99389.75;6184217;23;20004;-64
2022/11/12 20:34:24;;;;;;;55.22;32.53;;;;;;;5.53;84.64;99393.47;6183798;23;20498;-64
2022/11/12 20:36:49;;;;;;;35.67;23.13;;;;;;;5.38;83.96;99397.38;6184824;23;20003;-62
2022/11/12 20:39:14;;;;;;;33.28;21.25;;;;;;;5.35;84.96;99403.53;6184318;23;20004;-62
2022/11/12 20:41:40;;;;;;;31.52;19.40;;;;;;;5.23;84.43;99409.94;6181099;23;20084;-62
2022/11/12 20:44:05;;;;;;;29.05;17.25;;;;;;;5.13;84.75;99402.44;6184815;23;20084;-64
2022/11/12 20:46:30;;;;;;;22.73;15.55;;;;;;;5.12;85.51;99401.53;6183729;23;20411;-61
2022/11/12 20:48:56;;;;;;;27.45;16.75;;;;;;;5.18;86.68;99397.94;6183142;23;20085;-63
2022/11/12 20:51:27;;;;;;;28.17;17.35;;;;;;;5.15;85.92;99400.63;6182787;23;20573;-65
2022/11/12 20:53:53;;;;;;;24.05;15.13;;;;;;;5.10;86.81;99392.09;6134066;23;20013;-65
2022/11/12 20:56:22;;;;;;;24.30;14.32;;;;;;;5.12;87.91;99401.53;6132790;23;19997;-64
2022/11/12 20:58:48;;;;;;;39.38;26.40;;;;;;;5.14;88.20;99399.78;6158044;23;20028;-63
2022/11/12 21:01:14;;;;;;;28.48;19.13;;;;;;;5.14;88.36;99399.78;6184200;23;20338;-67
2022/11/12 21:03:40;;;;;;;30.27;18.42;;;;;;;5.10;87.88;99392.09;6133302;23;19997;-66
2022/11/12 21:06:07;;;;;;;29.10;16.88;;;;;;;5.08;87.31;99401.69;6157492;23;20004;-66
2022/11/12 21:08:33;;;;;;;25.15;14.88;;;;;;;5.08;87.95;99399.94;6158547;23;20056;-66
2022/11/12 21:10:59;;;;;;;26.65;16.63;;;;;;;5.13;88.62;99394.63;6157142;23;20334;-66
2022/11/12 21:13:24;;;;;;;24.80;15.73;;;;;;;5.18;88.38;99395.34;6158111;23;20005;-67
2022/11/12 21:15:50;;;;;;;23.83;14.00;;;;;;;5.15;87.56;99390.22;6183785;23;20008;-66
2022/11/12 21:18:16;;;;;;;26.25;15.10;;;;;;;5.17;87.75;99393.63;6157732;23;20036;-68
2022/11/12 21:20:41;;;;;;;25.60;16.20;;;;;;;5.11;87.85;99386.00;6133205;23;20394;-66
2022/11/12 21:23:07;;;;;;;23.80;15.65;;;;;;;5.08;87.85;99388.69;6157394;23;20566;-66
2022/11/12 21:25:36;;;;;;;23.80;15.20;;;;;;;5.07;88.48;99399.97;6184148;23;20005;-66
2022/11/12 21:28:01;;;;;;;24.40;15.82;;;;;;;5.06;88.59;99396.53;6133232;23;20083;-66
2022/11/12 21:30:27;;;;;;;29.70;17.77;;;;;;;5.08;88.71;99391.28;6157542;23;20423;-66
2022/11/12 21:32:52;;;;;;;32.05;21.05;;;;;;;5.08;89.46;99386.06;6183588;23;20008;-65
2022/11/12 21:35:18;;;;;;;35.95;21.92;;;;;;;5.12;90.78;99379.88;6183972;23;20012;-66
2022/11/12 21:37:43;;;;;;;39.58;23.83;;;;;;;5.17;90.62;99388.44;6183601;23;20076;-66
2022/11/12 21:40:08;;;;;;;37.03;22.70;;;;;;;5.21;90.87;99384.84;6184282;23;20421;-65
2022/11/12 21:42:34;;;;;;;34.08;21.95;;;;;;;5.27;91.57;99381.22;6157602;23;20035;-66
2022/11/12 21:44:59;;;;;;;31.92;20.75;;;;;;;5.31;91.35;99380.25;6182938;23;20084;-65
2022/11/12 21:47:25;;;;;;;46.30;25.58;;;;;;;5.36;91.53;99384.41;6183051;23;20084;-66
2022/11/12 21:49:50;;;;;;;58.97;31.65;;;;;;;5.43;92.15;99380.72;6183737;23;20080;-66
2022/11/12 21:52:15;;;;;;;45.70;28.95;;;;;;;5.47;92.35;99376.28;6183271;23;20127;-65
2022/11/12 21:54:41;;;;;;;47.95;28.58;;;;;;;5.48;92.16;99371.03;6183380;23;20177;-66
2022/11/12 21:57:06;;;;;;;49.33;29.80;;;;;;;5.53;92.36;99372.66;6183851;23;20423;-66
2022/11/12 21:59:31;;;;;;;44.80;27.70;;;;;;;5.56;92.52;99369.97;6157120;23;20096;-66
2022/11/12 22:01:57;;;;;;;42.83;26.17;;;;;;;5.57;92.58;99364.69;6157071;23;20091;-65
2022/11/12 22:04:23;;;;;;;38.42;24.92;;;;;;;5.59;92.06;99367.28;6157037;23;20435;-65
2022/11/12 22:06:48;;;;;;;39.42;25.40;;;;;;;5.57;92.47;99371.66;6157099;23;20084;-66
2022/11/12 22:09:13;;;;;;;43.20;26.80;;;;;;;5.55;92.65;99363.06;6157628;23;20068;-66
2022/11/12 22:11:39;;;;;;;37.92;24.20;;;;;;;5.58;92.97;99362.97;6183362;23;20478;-66
2022/11/12 22:14:04;;;;;;;37.67;24.88;;;;;;;5.53;92.79;99377.84;6157396;23;20092;-66
2022/11/12 22:16:29;;;;;;;31.05;21.02;;;;;;;5.52;93.02;99368.34;6156484;23;20080;-65
2022/11/12 22:18:55;;;;;;;31.92;19.90;;;;;;;5.55;93.09;99365.66;6183718;23;20078;-66
2022/11/12 22:21:28;;;;;;;30.10;20.25;;;;;;;5.58;92.35;99349.97;6157502;23;20009;-65
2022/11/12 22:23:54;;;;;;;28.38;19.08;;;;;;;5.58;92.40;99348.22;6157271;23;20005;-66
2022/11/12 22:26:21;;;;;;;33.28;22.17;;;;;;;5.61;92.46;99349.84;6132628;23;20466;-65
2022/11/12 22:28:47;;;;;;;34.40;21.65;;;;;;;5.63;92.31;99350.66;6133468;23;20032;-65
2022/11/12 22:31:17;;;;;;;32.95;20.48;;;;;;;5.63;91.38;99350.66;6131944;23;20657;-66
2022/11/12 22:33:42;;;;;;;32.78;21.05;;;;;;;5.59;91.82;99349.91;6132809;23;20005;-66
2022/11/12 22:36:09;;;;;;;38.03;23.30;;;;;;;5.56;91.20;99350.00;6183258;23;20422;-66
2022/11/12 22:38:36;;;;;;;31.05;20.33;;;;;;;5.55;92.10;99347.44;6132901;23;20009;-66
2022/11/12 22:41:09;;;;;;;33.33;19.60;;;;;;;5.58;92.47;99336.94;6157598;23;20373;-65
2022/11/12 22:43:36;;;;;;;34.78;21.65;;;;;;;5.56;92.18;99331.78;6183555;23;20005;-66
2022/11/12 22:46:06;;;;;;;30.35;20.10;;;;;;;5.59;91.86;99336.03;6182688;23;20001;-66
2022/11/12 22:48:31;;;;;;;28.55;17.27;;;;;;;5.61;92.09;99336.84;6133049;23;20005;-66
2022/11/12 22:51:01;;;;;;;29.02;19.17;;;;;;;5.61;91.03;99336.84;6132775;23;20020;-66
2022/11/12 22:53:27;;;;;;;27.88;18.05;;;;;;;5.58;90.54;99332.59;6183432;23;20012;-65
2022/11/12 22:55:52;;;;;;;30.80;18.98;;;;;;;5.52;91.01;99327.56;6156884;23;20068;-66
2022/11/12 22:58:17;;;;;;;29.88;18.60;;;;;;;5.55;90.94;99330.09;6183276;23;20486;-66
2022/11/12 23:00:43;;;;;;;31.95;22.02;;;;;;;5.50;90.13;99329.34;6181520;23;20005;-66
2022/11/12 23:03:08;;;;;;;29.85;20.40;;;;;;;5.47;90.03;99330.31;6182752;23;20079;-65
2022/11/12 23:05:35;;;;;;;28.67;18.38;;;;;;;5.44;90.32;99326.97;6183523;23;20079;-66
2022/11/12 23:08:01;;;;;;;26.63;17.38;;;;;;;5.41;90.45;99322.69;6183514;23;20001;-66
2022/11/12 23:10:26;;;;;;;26.65;17.88;;;;;;;5.38;89.95;99322.78;6184215;23;20008;-66
